sensor_id;sensor_type;location;lat;lon;timestamp;pressure;altitude;pressure_sealevel;temperature;humidity
11198;BME280;5655;48.744;9.162;2022-07-17T00:00:53;97016.94;;;21.94;100.00
11198;BME280;5655;48.744;9.162;2022-07-17T00:03:18;97018.16;;;21.90;100.00
11198;BME280;5655;48.744;9.162;2022-07-17T00:05:44;97027.59;;;21.85;100.00
11198;BME280;5655;48.744;9.162;2022-07-17T00:08:11;97019.91;;;21.80;100.00
11198;BME280;5655;48.744;9.162;2022-07-17T00:10:38;97025.16;;;21.71;100.00
11198;BME280;5655;48.744;9.162;2022-07-17T00:13:04;97013.56;;;21.67;100.00
11198;BME280;5655;48.744;9.162;2022-07-17T00:15:31;97017.81;;;21.68;100.00
11198;BME280;5655;48.744;9.162;2022-07-17T00:17:56;97013.91;;;21.69;100.00
11198;BME280;5655;48.744;9.162;2022-07-17T00:20:21;97011.97;;;21.69;100.00
11198;BME280;5655;48.744;9.162;2022-07-17T00:22:50;97013.22;;;21.65;100.00
11198;BME280;5655;48.744;9.162;2022-07-17T00:25:16;97012.78;;;21.66;100.00
11198;BME280;5655;48.744;9.162;2022-07-17T00:27:41;97016.28;;;21.67;100.00
11198;BME280;5655;48.744;9.162;2022-07-17T00:30:07;97006.34;;;21.77;100.00
11198;BME280;5655;48.744;9.162;2022-07-17T00:32:33;97009.50;;;21.75;100.00
11198;BME280;5655;48.744;9.162;2022-07-17T00:34:58;97011.72;;;21.80;100.00
11198;BME280;5655;48.744;9.162;2022-07-17T00:37:23;97016.75;;;21.62;100.00
11198;BME280;5655;48.744;9.162;2022-07-17T00:39:49;97007.28;;;21.70;100.00
11198;BME280;5655;48.744;9.162;2022-07-17T00:42:15;97014.41;;;21.64;100.00
11198;BME280;5655;48.744;9.162;2022-07-17T00:44:41;97008.88;;;21.67;100.00
11198;BME280;5655;48.744;9.162;2022-07-17T00:47:15;97013.47;;;21.70;100.00
11198;BME280;5655;48.744;9.162;2022-07-17T00:49:41;97003.09;;;21.65;100.00
11198;BME280;5655;48.744;9.162;2022-07-17T00:52:07;96999.72;;;21.58;100.00
11198;BME280;5655;48.744;9.162;2022-07-17T00:54:35;97006.78;;;21.55;100.00
11198;BME280;5655;48.744;9.162;2022-07-17T00:57:02;97005.03;;;21.65;100.00
11198;BME280;5655;48.744;9.162;2022-07-17T00:59:29;97011.38;;;21.58;100.00
11198;BME280;5655;48.744;9.162;2022-07-17T01:01:56;97008.25;;;21.60;100.00
11198;BME280;5655;48.744;9.162;2022-07-17T01:04:21;97004.34;;;21.61;100.00
11198;BME280;5655;48.744;9.162;2022-07-17T01:06:46;97004.28;;;21.64;100.00
11198;BME280;5655;48.744;9.162;2022-07-17T01:09:12;97006.63;;;21.62;100.00
11198;BME280;5655;48.744;9.162;2022-07-17T01:11:37;97008.25;;;21.60;100.00
11198;BME280;5655;48.744;9.162;2022-07-17T01:14:03;97000.41;;;21.42;100.00
11198;BME280;5655;48.744;9.162;2022-07-17T01:16:29;97005.84;;;21.22;100.00
11198;BME280;5655;48.744;9.162;2022-07-17T01:18:55;97003.81;;;21.26;100.00
11198;BME280;5655;48.744;9.162;2022-07-17T01:21:21;97006.19;;;21.24;100.00
11198;BME280;5655;48.744;9.162;2022-07-17T01:23:46;97005.00;;;21.25;100.00
11198;BME280;5655;48.744;9.162;2022-07-17T01:26:12;97010.69;;;21.35;100.00
11198;BME280;5655;48.744;9.162;2022-07-17T01:28:37;96998.72;;;21.28;100.00
11198;BME280;5655;48.744;9.162;2022-07-17T01:31:03;97005.84;;;21.22;100.00
11198;BME280;5655;48.744;9.162;2022-07-17T01:33:28;97002.28;;;21.25;100.00
11198;BME280;5655;48.744;9.162;2022-07-17T01:35:54;96999.56;;;21.25;100.00
11198;BME280;5655;48.744;9.162;2022-07-17T01:38:19;97005.78;;;21.26;100.00
11198;BME280;5655;48.744;9.162;2022-07-17T01:40:44;97002.16;;;21.33;100.00
11198;BME280;5655;48.744;9.162;2022-07-17T01:43:10;97006.56;;;21.26;100.00
11198;BME280;5655;48.744;9.162;2022-07-17T01:45:36;97002.56;;;21.31;100.00
11198;BME280;5655;48.744;9.162;2022-07-17T01:48:01;97009.31;;;21.23;100.00
11198;BME280;5655;48.744;9.162;2022-07-17T01:50:26;97006.06;;;21.08;100.00
11198;BME280;5655;48.744;9.162;2022-07-17T01:52:52;97000.97;;;20.87;100.00
11198;BME280;5655;48.744;9.162;2022-07-17T01:55:17;97005.66;;;20.87;100.00
11198;BME280;5655;48.744;9.162;2022-07-17T01:57:43;97007.22;;;20.84;100.00
11198;BME280;5655;48.744;9.162;2022-07-17T02:00:12;97005.59;;;20.90;100.00
11198;BME280;5655;48.744;9.162;2022-07-17T02:02:39;97001.69;;;20.91;100.00
11198;BME280;5655;48.744;9.162;2022-07-17T02:05:05;97007.72;;;21.02;100.00
11198;BME280;5655;48.744;9.162;2022-07-17T02:07:30;97000.78;;;20.98;100.00
11198;BME280;5655;48.744;9.162;2022-07-17T02:09:57;96995.34;;;20.98;100.00
11198;BME280;5655;48.744;9.162;2022-07-17T02:12:22;97001.78;;;20.84;100.00
11198;BME280;5655;48.744;9.162;2022-07-17T02:14:47;96999.56;;;20.79;100.00
11198;BME280;5655;48.744;9.162;2022-07-17T02:17:13;96986.38;;;20.77;100.00
11198;BME280;5655;48.744;9.162;2022-07-17T02:19:38;97004.09;;;20.86;100.00
11198;BME280;5655;48.744;9.162;2022-07-17T02:22:04;96990.97;;;20.80;100.00
11198;BME280;5655;48.744;9.162;2022-07-17T02:24:29;96985.59;;;20.77;100.00
11198;BME280;5655;48.744;9.162;2022-07-17T02:26:54;96991.75;;;20.81;100.00
11198;BME280;5655;48.744;9.162;2022-07-17T02:29:20;96989.31;;;20.87;100.00
11198;BME280;5655;48.744;9.162;2022-07-17T02:31:45;96980.16;;;20.77;100.00
11198;BME280;5655;48.744;9.162;2022-07-17T02:34:10;96987.19;;;20.74;100.00
11198;BME280;5655;48.744;9.162;2022-07-17T02:36:36;96984.03;;;20.76;100.00
11198;BME280;5655;48.744;9.162;2022-07-17T02:39:01;96984.41;;;20.78;100.00
11198;BME280;5655;48.744;9.162;2022-07-17T02:41:27;96985.59;;;20.77;100.00
11198;BME280;5655;48.744;9.162;2022-07-17T02:43:52;96980.38;;;20.86;100.00
11198;BME280;5655;48.744;9.162;2022-07-17T02:46:17;96983.25;;;20.79;100.00
11198;BME280;5655;48.744;9.162;2022-07-17T02:48:43;96984.53;;;20.94;100.00
11198;BME280;5655;48.744;9.162;2022-07-17T02:51:09;96986.22;;;20.84;100.00
11198;BME280;5655;48.744;9.162;2022-07-17T02:53:34;96977.56;;;20.70;100.00
11198;BME280;5655;48.744;9.162;2022-07-17T02:56:00;96986.78;;;20.53;100.00
11198;BME280;5655;48.744;9.162;2022-07-17T02:58:25;96974.81;;;20.47;100.00
11198;BME280;5655;48.744;9.162;2022-07-17T03:00:51;96978.59;;;20.26;100.00
11198;BME280;5655;48.744;9.162;2022-07-17T03:03:16;96978.09;;;20.34;100.00
11198;BME280;5655;48.744;9.162;2022-07-17T03:05:43;96980.09;;;20.30;100.00
11198;BME280;5655;48.744;9.162;2022-07-17T03:08:08;96978.59;;;20.26;100.00
11198;BME280;5655;48.744;9.162;2022-07-17T03:10:34;96979.38;;;20.26;100.00
11198;BME280;5655;48.744;9.162;2022-07-17T03:12:59;96981.38;;;20.22;100.00
11198;BME280;5655;48.744;9.162;2022-07-17T03:15:24;96976.50;;;20.10;100.00
11198;BME280;5655;48.744;9.162;2022-07-17T03:17:49;96969.91;;;20.08;100.00
11198;BME280;5655;48.744;9.162;2022-07-17T03:20:15;96970.38;;;20.03;100.00
11198;BME280;5655;48.744;9.162;2022-07-17T03:22:40;96969.56;;;20.06;100.00
11198;BME280;5655;48.744;9.162;2022-07-17T03:25:06;96966.13;;;20.02;100.00
11198;BME280;5655;48.744;9.162;2022-07-17T03:27:32;96965.38;;;19.98;100.00
11198;BME280;5655;48.744;9.162;2022-07-17T03:29:57;96959.59;;;19.96;100.00
11198;BME280;5655;48.744;9.162;2022-07-17T03:32:22;96962.38;;;19.92;100.00
11198;BME280;5655;48.744;9.162;2022-07-17T03:34:48;96964.56;;;19.74;100.00
11198;BME280;5655;48.744;9.162;2022-07-17T03:37:13;96965.00;;;19.69;100.00
11198;BME280;5655;48.744;9.162;2022-07-17T03:39:39;96960.44;;;19.62;100.00
11198;BME280;5655;48.744;9.162;2022-07-17T03:42:04;96970.09;;;19.67;100.00
11198;BME280;5655;48.744;9.162;2022-07-17T03:44:29;96964.75;;;19.56;100.00
11198;BME280;5655;48.744;9.162;2022-07-17T03:46:55;96963.19;;;19.59;100.00
11198;BME280;5655;48.744;9.162;2022-07-17T03:49:21;96964.81;;;19.53;100.00
11198;BME280;5655;48.744;9.162;2022-07-17T03:51:46;96967.56;;;19.49;100.00
11198;BME280;5655;48.744;9.162;2022-07-17T03:54:12;96961.44;;;19.41;100.00
11198;BME280;5655;48.744;9.162;2022-07-17T03:56:37;96976.56;;;19.39;100.00
11198;BME280;5655;48.744;9.162;2022-07-17T03:59:02;96971.19;;;19.35;100.00
11198;BME280;5655;48.744;9.162;2022-07-17T04:01:28;96971.09;;;19.42;100.00
11198;BME280;5655;48.744;9.162;2022-07-17T04:03:53;96963.38;;;19.41;100.00
11198;BME280;5655;48.744;9.162;2022-07-17T04:06:18;96979.34;;;19.35;100.00
11198;BME280;5655;48.744;9.162;2022-07-17T04:08:44;96983.59;;;19.36;100.00
11198;BME280;5655;48.744;9.162;2022-07-17T04:11:09;96979.41;;;19.28;100.00
11198;BME280;5655;48.744;9.162;2022-07-17T04:13:35;96986.78;;;19.28;100.00
11198;BME280;5655;48.744;9.162;2022-07-17T04:16:00;96982.88;;;19.32;100.00
11198;BME280;5655;48.744;9.162;2022-07-17T04:18:29;96984.31;;;19.40;100.00
11198;BME280;5655;48.744;9.162;2022-07-17T04:20:57;96988.91;;;19.47;100.00
11198;BME280;5655;48.744;9.162;2022-07-17T04:23:22;96984.25;;;19.47;100.00
11198;BME280;5655;48.744;9.162;2022-07-17T04:25:48;96987.31;;;19.53;100.00
11198;BME280;5655;48.744;9.162;2022-07-17T04:28:13;96990.31;;;19.62;100.00
11198;BME280;5655;48.744;9.162;2022-07-17T04:30:39;96991.81;;;19.67;100.00
11198;BME280;5655;48.744;9.162;2022-07-17T04:33:05;96986.09;;;19.58;100.00
11198;BME280;5655;48.744;9.162;2022-07-17T04:35:30;96987.25;;;19.57;100.00
11198;BME280;5655;48.744;9.162;2022-07-17T04:37:56;96993.50;;;19.54;100.00
11198;BME280;5655;48.744;9.162;2022-07-17T04:40:22;96989.81;;;19.33;100.00
11198;BME280;5655;48.744;9.162;2022-07-17T04:42:47;96985.84;;;19.45;100.00
11198;BME280;5655;48.744;9.162;2022-07-17T04:45:12;96991.94;;;19.56;100.00
11198;BME280;5655;48.744;9.162;2022-07-17T04:47:41;96994.19;;;19.61;100.00
11198;BME280;5655;48.744;9.162;2022-07-17T04:50:08;96989.44;;;19.69;100.00
11198;BME280;5655;48.744;9.162;2022-07-17T04:52:33;96991.44;;;19.65;100.00
11198;BME280;5655;48.744;9.162;2022-07-17T04:54:59;96991.44;;;19.65;100.00
11198;BME280;5655;48.744;9.162;2022-07-17T04:57:24;96984.66;;;19.80;100.00
11198;BME280;5655;48.744;9.162;2022-07-17T04:59:50;96989.91;;;19.94;100.00
11198;BME280;5655;48.744;9.162;2022-07-17T05:02:15;96987.56;;;19.96;100.00
11198;BME280;5655;48.744;9.162;2022-07-17T05:04:40;96996.94;;;19.91;100.00
11198;BME280;5655;48.744;9.162;2022-07-17T05:07:06;96999.31;;;19.86;100.00
11198;BME280;5655;48.744;9.162;2022-07-17T05:09:31;96995.94;;;19.78;100.00
11198;BME280;5655;48.744;9.162;2022-07-17T05:11:56;96999.59;;;19.65;100.00
11198;BME280;5655;48.744;9.162;2022-07-17T05:14:22;96996.88;;;19.65;100.00
11198;BME280;5655;48.744;9.162;2022-07-17T05:16:47;96995.25;;;19.71;100.00
11198;BME280;5655;48.744;9.162;2022-07-17T05:19:12;96995.19;;;19.74;100.00
11198;BME280;5655;48.744;9.162;2022-07-17T05:21:38;97005.91;;;19.85;100.00
11198;BME280;5655;48.744;9.162;2022-07-17T05:24:03;97004.75;;;19.86;100.00
11198;BME280;5655;48.744;9.162;2022-07-17T05:26:29;97004.31;;;19.91;100.00
11198;BME280;5655;48.744;9.162;2022-07-17T05:28:54;97001.13;;;19.96;100.00
11198;BME280;5655;48.744;9.162;2022-07-17T05:31:20;97002.13;;;20.09;100.00
11198;BME280;5655;48.744;9.162;2022-07-17T05:33:45;96999.69;;;20.18;100.00
11198;BME280;5655;48.744;9.162;2022-07-17T05:36:10;97007.31;;;20.30;100.00
11198;BME280;5655;48.744;9.162;2022-07-17T05:38:36;96998.88;;;20.48;100.00
11198;BME280;5655;48.744;9.162;2022-07-17T05:41:02;97005.22;;;20.65;100.00
11198;BME280;5655;48.744;9.162;2022-07-17T05:43:28;97007.47;;;20.70;100.00
11198;BME280;5655;48.744;9.162;2022-07-17T05:45:54;97002.75;;;20.74;100.00
11198;BME280;5655;48.744;9.162;2022-07-17T05:48:20;96992.91;;;20.80;100.00
11198;BME280;5655;48.744;9.162;2022-07-17T05:50:46;96999.28;;;20.97;100.00
11198;BME280;5655;48.744;9.162;2022-07-17T05:53:11;97007.72;;;21.02;100.00
11198;BME280;5655;48.744;9.162;2022-07-17T05:55:36;97013.59;;;21.24;100.00
11198;BME280;5655;48.744;9.162;2022-07-17T05:58:02;97012.22;;;21.36;100.00
11198;BME280;5655;48.744;9.162;2022-07-17T06:00:27;97016.13;;;21.54;100.00
11198;BME280;5655;48.744;9.162;2022-07-17T06:02:52;97017.41;;;21.69;100.00
11198;BME280;5655;48.744;9.162;2022-07-17T06:05:18;97019.28;;;21.53;100.00
11198;BME280;5655;48.744;9.162;2022-07-17T06:07:43;97018.75;;;21.61;100.00
11198;BME280;5655;48.744;9.162;2022-07-17T06:10:09;97022.88;;;21.69;100.00
11198;BME280;5655;48.744;9.162;2022-07-17T06:12:34;97017.66;;;21.75;100.00
11198;BME280;5655;48.744;9.162;2022-07-17T06:15:00;97022.63;;;21.80;100.00
11198;BME280;5655;48.744;9.162;2022-07-17T06:17:25;97020.41;;;21.75;100.00
11198;BME280;5655;48.744;9.162;2022-07-17T06:19:50;97024.47;;;21.87;100.00
11198;BME280;5655;48.744;9.162;2022-07-17T06:22:18;97019.16;;;21.99;100.00
11198;BME280;5655;48.744;9.162;2022-07-17T06:24:44;97027.00;;;21.97;100.00
11198;BME280;5655;48.744;9.162;2022-07-17T06:27:09;97026.41;;;21.86;100.00
11198;BME280;5655;48.744;9.162;2022-07-17T06:29:36;97024.47;;;22.06;100.00
11198;BME280;5655;48.744;9.162;2022-07-17T06:32:02;97027.38;;;22.15;100.00
11198;BME280;5655;48.744;9.162;2022-07-17T06:34:27;97032.66;;;22.06;100.00
11198;BME280;5655;48.744;9.162;2022-07-17T06:36:52;97033.97;;;21.98;100.00
11198;BME280;5655;48.744;9.162;2022-07-17T06:39:17;97041.22;;;22.25;100.00
11198;BME280;5655;48.744;9.162;2022-07-17T06:41:43;97040.22;;;22.35;100.00
11198;BME280;5655;48.744;9.162;2022-07-17T06:44:08;97037.03;;;22.56;100.00
11198;BME280;5655;48.744;9.162;2022-07-17T06:46:33;97033.25;;;22.66;100.00
11198;BME280;5655;48.744;9.162;2022-07-17T06:48:59;97031.59;;;22.88;100.00
11198;BME280;5655;48.744;9.162;2022-07-17T06:51:24;97041.13;;;22.64;100.00
11198;BME280;5655;48.744;9.162;2022-07-17T06:53:50;97032.09;;;22.83;100.00
11198;BME280;5655;48.744;9.162;2022-07-17T06:56:15;97037.03;;;23.21;100.00
11198;BME280;5655;48.744;9.162;2022-07-17T06:58:40;97040.59;;;23.50;100.00
11198;BME280;5655;48.744;9.162;2022-07-17T07:01:06;97046.38;;;23.68;100.00
11198;BME280;5655;48.744;9.162;2022-07-17T07:03:31;97044.91;;;23.92;100.00
11198;BME280;5655;48.744;9.162;2022-07-17T07:05:56;97043.84;;;24.03;100.00
11198;BME280;5655;48.744;9.162;2022-07-17T07:08:22;97046.22;;;24.01;100.00
11198;BME280;5655;48.744;9.162;2022-07-17T07:10:47;97045.63;;;24.22;100.00
11198;BME280;5655;48.744;9.162;2022-07-17T07:13:12;97041.94;;;24.41;100.00
11198;BME280;5655;48.744;9.162;2022-07-17T07:15:38;97049.94;;;24.61;100.00
11198;BME280;5655;48.744;9.162;2022-07-17T07:18:04;97041.72;;;24.73;100.00
11198;BME280;5655;48.744;9.162;2022-07-17T07:20:29;97053.66;;;24.79;100.00
11198;BME280;5655;48.744;9.162;2022-07-17T07:22:55;97052.56;;;24.77;100.00
11198;BME280;5655;48.744;9.162;2022-07-17T07:25:20;97049.25;;;24.82;100.00
11198;BME280;5655;48.744;9.162;2022-07-17T07:27:46;97045.88;;;24.91;100.00
11198;BME280;5655;48.744;9.162;2022-07-17T07:30:12;97043.78;;;24.69;100.00
11198;BME280;5655;48.744;9.162;2022-07-17T07:32:39;97050.06;;;24.57;100.00
11198;BME280;5655;48.744;9.162;2022-07-17T07:35:06;97056.06;;;24.52;100.00
11198;BME280;5655;48.744;9.162;2022-07-17T07:37:32;97057.91;;;24.42;100.00
11198;BME280;5655;48.744;9.162;2022-07-17T07:40:01;97060.56;;;24.46;100.00
11198;BME280;5655;48.744;9.162;2022-07-17T07:42:27;97055.19;;;24.42;100.00
11198;BME280;5655;48.744;9.162;2022-07-17T07:44:52;97048.06;;;24.45;100.00
11198;BME280;5655;48.744;9.162;2022-07-17T07:47:18;97047.19;;;24.35;100.00
11198;BME280;5655;48.744;9.162;2022-07-17T07:49:44;97044.69;;;24.41;100.00
11198;BME280;5655;48.744;9.162;2022-07-17T07:52:09;97052.00;;;24.44;100.00
11198;BME280;5655;48.744;9.162;2022-07-17T07:54:35;97058.78;;;24.39;100.00
11198;BME280;5655;48.744;9.162;2022-07-17T07:57:01;97061.41;;;24.30;100.00
11198;BME280;5655;48.744;9.162;2022-07-17T07:59:27;97054.88;;;24.53;100.00
11198;BME280;5655;48.744;9.162;2022-07-17T08:01:52;97060.88;;;24.61;100.00
11198;BME280;5655;48.744;9.162;2022-07-17T08:04:18;97065.72;;;24.69;100.00
11198;BME280;5655;48.744;9.162;2022-07-17T08:06:43;97072.28;;;24.84;100.00
11198;BME280;5655;48.744;9.162;2022-07-17T08:09:09;97068.78;;;24.84;100.00
11198;BME280;5655;48.744;9.162;2022-07-17T08:11:34;97071.19;;;24.69;100.00
11198;BME280;5655;48.744;9.162;2022-07-17T08:13:59;97074.16;;;24.62;100.00
11198;BME280;5655;48.744;9.162;2022-07-17T08:16:25;97072.84;;;24.79;96.76
11198;BME280;5655;48.744;9.162;2022-07-17T08:18:50;97071.97;;;24.95;100.00
11198;BME280;5655;48.744;9.162;2022-07-17T08:21:16;97071.94;;;25.08;97.99
11198;BME280;5655;48.744;9.162;2022-07-17T08:23:41;97078.41;;;25.14;97.11
11198;BME280;5655;48.744;9.162;2022-07-17T08:26:07;97074.44;;;25.27;97.77
11198;BME280;5655;48.744;9.162;2022-07-17T08:28:39;97069.06;;;25.37;92.01
11198;BME280;5655;48.744;9.162;2022-07-17T08:31:04;97076.69;;;25.42;92.66
11198;BME280;5655;48.744;9.162;2022-07-17T08:33:30;97080.06;;;25.46;91.55
11198;BME280;5655;48.744;9.162;2022-07-17T08:35:55;97071.88;;;25.58;88.28
11198;BME280;5655;48.744;9.162;2022-07-17T08:38:20;97069.16;;;25.67;90.21
11198;BME280;5655;48.744;9.162;2022-07-17T08:40:46;97073.25;;;25.50;86.82
11198;BME280;5655;48.744;9.162;2022-07-17T08:43:14;97071.34;;;25.72;86.06
11198;BME280;5655;48.744;9.162;2022-07-17T08:45:39;97068.81;;;25.78;85.39
11198;BME280;5655;48.744;9.162;2022-07-17T08:48:06;97067.59;;;25.79;84.55
11198;BME280;5655;48.744;9.162;2022-07-17T08:50:35;97067.47;;;25.83;85.68
11198;BME280;5655;48.744;9.162;2022-07-17T08:53:01;97070.09;;;26.08;79.80
11198;BME280;5655;48.744;9.162;2022-07-17T08:55:28;97082.47;;;26.12;82.18
11198;BME280;5655;48.744;9.162;2022-07-17T08:57:54;97081.69;;;26.12;77.04
11198;BME280;5655;48.744;9.162;2022-07-17T09:00:21;97083.06;;;26.29;79.71
11198;BME280;5655;48.744;9.162;2022-07-17T09:02:58;97076.13;;;26.46;79.18
11198;BME280;5655;48.744;9.162;2022-07-17T09:05:25;97082.00;;;26.57;79.09
11198;BME280;5655;48.744;9.162;2022-07-17T09:07:51;97078.28;;;26.51;74.60
11198;BME280;5655;48.744;9.162;2022-07-17T09:10:17;97077.09;;;26.52;69.21
11198;BME280;5655;48.744;9.162;2022-07-17T09:12:42;97081.38;;;26.62;72.73
11198;BME280;5655;48.744;9.162;2022-07-17T09:15:18;97080.56;;;26.84;69.36
11198;BME280;5655;48.744;9.162;2022-07-17T09:17:51;97078.63;;;26.93;70.09
11198;BME280;5655;48.744;9.162;2022-07-17T09:20:18;97074.69;;;26.94;63.52
11198;BME280;5655;48.744;9.162;2022-07-17T09:22:58;97073.78;;;27.06;64.81
11198;BME280;5655;48.744;9.162;2022-07-17T09:25:35;97080.66;;;27.02;61.79
11198;BME280;5655;48.744;9.162;2022-07-17T09:28:03;97074.88;;;27.09;61.12
11198;BME280;5655;48.744;9.162;2022-07-17T09:30:29;97075.19;;;27.20;60.31
11198;BME280;5655;48.744;9.162;2022-07-17T09:32:55;97081.69;;;27.53;59.26
11198;BME280;5655;48.744;9.162;2022-07-17T09:35:21;97088.59;;;27.76;58.53
11198;BME280;5655;48.744;9.162;2022-07-17T09:37:47;97088.66;;;27.36;54.16
11198;BME280;5655;48.744;9.162;2022-07-17T09:40:13;97080.47;;;27.64;55.02
11198;BME280;5655;48.744;9.162;2022-07-17T09:42:57;97085.19;;;27.54;53.51
11198;BME280;5655;48.744;9.162;2022-07-17T09:45:23;97080.47;;;27.55;55.61
11198;BME280;5655;48.744;9.162;2022-07-17T09:47:48;97070.06;;;27.49;51.88
11198;BME280;5655;48.744;9.162;2022-07-17T09:50:14;97080.16;;;27.71;53.27
11198;BME280;5655;48.744;9.162;2022-07-17T09:52:41;97070.69;;;27.72;53.67
11198;BME280;5655;48.744;9.162;2022-07-17T09:55:08;97067.00;;;28.02;53.48
11198;BME280;5655;48.744;9.162;2022-07-17T09:57:34;97069.06;;;28.43;52.61
11198;BME280;5655;48.744;9.162;2022-07-17T10:00:03;97072.84;;;28.64;51.71
11198;BME280;5655;48.744;9.162;2022-07-17T10:02:30;97068.47;;;28.39;50.70
11198;BME280;5655;48.744;9.162;2022-07-17T10:04:57;97064.09;;;28.66;53.07
11198;BME280;5655;48.744;9.162;2022-07-17T10:07:23;97066.41;;;29.00;48.40
11198;BME280;5655;48.744;9.162;2022-07-17T10:09:48;97061.84;;;28.97;47.06
11198;BME280;5655;48.744;9.162;2022-07-17T10:12:15;97081.34;;;29.17;46.92
11198;BME280;5655;48.744;9.162;2022-07-17T10:14:42;97071.84;;;29.18;45.85
11198;BME280;5655;48.744;9.162;2022-07-17T10:17:09;97064.44;;;29.34;44.99
11198;BME280;5655;48.744;9.162;2022-07-17T10:19:46;97066.47;;;29.48;42.46
11198;BME280;5655;48.744;9.162;2022-07-17T10:22:11;97065.03;;;29.52;40.74
11198;BME280;5655;48.744;9.162;2022-07-17T10:24:52;97055.28;;;29.66;40.87
11198;BME280;5655;48.744;9.162;2022-07-17T10:27:23;97058.53;;;29.79;41.39
11198;BME280;5655;48.744;9.162;2022-07-17T10:30:04;97052.03;;;29.91;41.59
11198;BME280;5655;48.744;9.162;2022-07-17T10:32:31;97044.91;;;29.61;39.57
11198;BME280;5655;48.744;9.162;2022-07-17T10:37:31;97049.38;;;30.11;41.92
11198;BME280;5655;48.744;9.162;2022-07-17T10:40:11;97050.81;;;29.68;37.79
11198;BME280;5655;48.744;9.162;2022-07-17T10:45:17;97041.47;;;30.04;39.84
11198;BME280;5655;48.744;9.162;2022-07-17T10:50:12;97044.38;;;30.74;40.67
11198;BME280;5655;48.744;9.162;2022-07-17T10:52:38;97040.66;;;30.77;34.53
11198;BME280;5655;48.744;9.162;2022-07-17T10:55:05;97040.72;;;30.97;37.18
11198;BME280;5655;48.744;9.162;2022-07-17T10:57:31;97037.88;;;30.77;38.64
11198;BME280;5655;48.744;9.162;2022-07-17T10:59:57;97037.94;;;30.97;36.77
11198;BME280;5655;48.744;9.162;2022-07-17T11:02:29;97032.94;;;31.16;35.61
11198;BME280;5655;48.744;9.162;2022-07-17T11:05:04;97039.53;;;30.69;34.47
11198;BME280;5655;48.744;9.162;2022-07-17T11:07:30;97042.13;;;31.07;34.75
11198;BME280;5655;48.744;9.162;2022-07-17T11:09:55;97046.97;;;31.13;32.87
11198;BME280;5655;48.744;9.162;2022-07-17T11:12:33;97047.13;;;31.44;38.31
11198;BME280;5655;48.744;9.162;2022-07-17T11:15:00;97039.91;;;31.72;34.12
11198;BME280;5655;48.744;9.162;2022-07-17T11:17:26;97034.50;;;31.83;35.71
11198;BME280;5655;48.744;9.162;2022-07-17T11:19:52;97032.47;;;31.58;34.99
11198;BME280;5655;48.744;9.162;2022-07-17T11:22:22;97034.16;;;31.76;33.83
11198;BME280;5655;48.744;9.162;2022-07-17T11:24:49;97035.06;;;31.87;34.04
11198;BME280;5655;48.744;9.162;2022-07-17T11:27:26;97025.06;;;31.95;36.44
11198;BME280;5655;48.744;9.162;2022-07-17T11:29:52;97024.22;;;32.10;34.94
11198;BME280;5655;48.744;9.162;2022-07-17T11:32:18;97023.56;;;32.20;34.44
11198;BME280;5655;48.744;9.162;2022-07-17T11:34:44;97022.44;;;32.38;35.52
11198;BME280;5655;48.744;9.162;2022-07-17T11:37:10;97029.59;;;32.50;34.59
11198;BME280;5655;48.744;9.162;2022-07-17T11:39:43;97015.28;;;32.26;32.43
11198;BME280;5655;48.744;9.162;2022-07-17T11:42:10;97024.84;;;32.25;34.37
11198;BME280;5655;48.744;9.162;2022-07-17T11:44:36;97023.59;;;32.57;33.10
11198;BME280;5655;48.744;9.162;2022-07-17T11:47:03;97029.16;;;32.57;32.97
11198;BME280;5655;48.744;9.162;2022-07-17T11:49:39;97026.56;;;32.85;33.57
11198;BME280;5655;48.744;9.162;2022-07-17T11:52:17;97015.38;;;32.68;32.76
11198;BME280;5655;48.744;9.162;2022-07-17T11:54:54;97029.47;;;33.07;34.59
11198;BME280;5655;48.744;9.162;2022-07-17T11:57:21;97019.88;;;33.03;32.61
11198;BME280;5655;48.744;9.162;2022-07-17T11:59:48;97027.53;;;33.19;31.61
11198;BME280;5655;48.744;9.162;2022-07-17T12:02:18;97021.91;;;33.08;32.49
11198;BME280;5655;48.744;9.162;2022-07-17T12:04:53;97015.50;;;33.33;35.67
11198;BME280;5655;48.744;9.162;2022-07-17T12:07:20;97018.06;;;33.42;33.14
11198;BME280;5655;48.744;9.162;2022-07-17T12:09:46;97018.25;;;33.27;33.13
11198;BME280;5655;48.744;9.162;2022-07-17T12:12:21;97018.50;;;33.24;30.89
11198;BME280;5655;48.744;9.162;2022-07-17T12:14:58;97022.72;;;33.67;31.88
11198;BME280;5655;48.744;9.162;2022-07-17T12:17:24;97016.19;;;33.82;32.32
11198;BME280;5655;48.744;9.162;2022-07-17T12:19:51;97014.16;;;33.88;32.07
11198;BME280;5655;48.744;9.162;2022-07-17T12:22:17;97004.13;;;34.18;31.26
11198;BME280;5655;48.744;9.162;2022-07-17T12:24:44;97012.19;;;33.99;29.81
11198;BME280;5655;48.744;9.162;2022-07-17T12:27:12;97006.09;;;34.01;29.75
11198;BME280;5655;48.744;9.162;2022-07-17T12:29:38;97005.38;;;34.39;30.15
11198;BME280;5655;48.744;9.162;2022-07-17T12:32:06;97012.22;;;34.38;31.01
11198;BME280;5655;48.744;9.162;2022-07-17T12:34:34;97011.94;;;34.64;29.89
11198;BME280;5655;48.744;9.162;2022-07-17T12:36:59;97012.72;;;34.20;30.31
11198;BME280;5655;48.744;9.162;2022-07-17T12:39:25;97008.44;;;34.47;30.49
11198;BME280;5655;48.744;9.162;2022-07-17T12:41:50;96990.97;;;34.46;29.55
11198;BME280;5655;48.744;9.162;2022-07-17T12:44:16;96998.03;;;34.58;28.89
11198;BME280;5655;48.744;9.162;2022-07-17T12:46:41;97001.88;;;34.16;28.97
11198;BME280;5655;48.744;9.162;2022-07-17T12:49:07;97009.41;;;34.44;29.37
11198;BME280;5655;48.744;9.162;2022-07-17T12:51:32;96999.06;;;34.67;30.27
11198;BME280;5655;48.744;9.162;2022-07-17T12:53:58;97000.06;;;34.36;28.76
11198;BME280;5655;48.744;9.162;2022-07-17T12:56:24;97007.91;;;34.54;28.45
11198;BME280;5655;48.744;9.162;2022-07-17T12:58:50;97007.16;;;34.65;28.38
11198;BME280;5655;48.744;9.162;2022-07-17T13:01:16;97003.31;;;34.90;27.70
11198;BME280;5655;48.744;9.162;2022-07-17T13:03:42;97006.38;;;34.64;28.41
11198;BME280;5655;48.744;9.162;2022-07-17T13:06:07;97014.72;;;34.81;26.67
11198;BME280;5655;48.744;9.162;2022-07-17T13:08:33;97005.09;;;34.93;26.77